Time;durP1;ratioP1;P1;durP2;ratioP2;P2;SDS_P1;SDS_P2;PMS_P1;PMS_P2;Temp;Humidity;BMP_temperature;BMP_pressure;BME280_temperature;BME280_humidity;BME280_pressure;Samples;Min_cycle;Max_cycle;Signal;HPM_P1;HPM_P2
2021/04/17 00:02:07;;;;;;;7.13;2.70;;;4.80;98.00;;;;;;4897501;29;20828;-82
2021/04/17 00:04:36;;;;;;;8.40;3.70;;;4.70;99.90;;;;;;4897235;29;20487;-82
2021/04/17 00:07:04;;;;;;;14.80;3.53;;;4.70;99.90;;;;;;4906919;29;20528;-82
2021/04/17 00:09:32;;;;;;;10.77;4.77;;;4.60;99.90;;;;;;4901082;29;20512;-82
2021/04/17 00:12:04;;;;;;;8.67;3.10;;;4.60;99.90;;;;;;4900153;29;20517;-82
2021/04/17 00:14:44;;;;;;;;;;;;;;;;;;;;;
2021/04/17 00:17:17;;;;;;;9.10;3.60;;;4.60;99.90;;;;;;4897192;29;20455;-82
2021/04/17 00:19:47;;;;;;;9.47;4.20;;;4.60;99.90;;;;;;4910996;29;20549;-82
2021/04/17 00:22:17;;;;;;;8.37;2.77;;;4.80;99.90;;;;;;4900714;29;20569;-82
2021/04/17 00:24:47;;;;;;;14.50;4.30;;;4.90;98.90;;;;;;4896354;29;20907;-82
2021/04/17 00:27:14;;;;;;;8.10;4.27;;;4.90;91.90;;;;;;4900736;29;20495;-82
2021/04/17 00:29:41;;;;;;;11.30;4.90;;;5.00;83.90;;;;;;4902613;28;20457;-82
2021/04/17 00:32:11;;;;;;;15.53;5.20;;;5.00;78.70;;;;;;4914187;29;20466;-82
2021/04/17 00:34:38;;;;;;;12.57;4.70;;;5.10;68.70;;;;;;4915481;29;20457;-82
2021/04/17 00:37:06;;;;;;;6.57;1.90;;;5.40;61.10;;;;;;4912438;29;20459;-82
2021/04/17 00:39:34;;;;;;;9.00;3.30;;;5.40;58.00;;;;;;4896013;29;20466;-82
2021/04/17 00:42:05;;;;;;;6.93;2.83;;;5.20;60.60;;;;;;4912200;29;20462;-82
2021/04/17 00:44:35;;;;;;;6.70;2.47;;;5.10;65.30;;;;;;4902947;29;20942;-82
2021/04/17 00:47:02;;;;;;;7.07;2.70;;;5.00;65.80;;;;;;4915511;29;20832;-82
2021/04/17 00:49:28;;;;;;;6.87;2.33;;;4.90;68.90;;;;;;4915343;29;21036;-82
2021/04/17 00:51:55;;;;;;;7.43;3.43;;;4.80;71.30;;;;;;4915667;29;20943;-82
2021/04/17 00:54:21;;;;;;;8.97;3.40;;;4.60;75.40;;;;;;4902175;29;20459;-82
2021/04/17 00:56:50;;;;;;;10.97;3.53;;;4.40;78.60;;;;;;4896698;29;20463;-82
2021/04/17 00:59:19;;;;;;;8.27;3.10;;;4.30;83.10;;;;;;4897731;29;21093;-83
2021/04/17 01:01:46;;;;;;;12.13;3.77;;;4.00;91.30;;;;;;4896439;29;20483;-82
2021/04/17 01:04:19;;;;;;;9.90;4.00;;;3.70;97.20;;;;;;4899714;29;20844;-82
2021/04/17 01:06:51;;;;;;;7.50;2.60;;;3.50;99.90;;;;;;4896678;28;20463;-82
2021/04/17 01:09:26;;;;;;;10.63;4.30;;;3.40;99.90;;;;;;4902042;29;20938;-82
2021/04/17 01:12:03;;;;;;;9.07;3.00;;;3.10;99.90;;;;;;4915315;29;20464;-82
2021/04/17 01:14:32;;;;;;;10.73;3.63;;;3.00;99.90;;;;;;4914596;29;20474;-82
2021/04/17 01:16:59;;;;;;;7.53;2.80;;;2.80;99.90;;;;;;4915059;29;20461;-81
2021/04/17 01:19:49;;;;;;;7.53;3.30;;;2.80;99.90;;;;;;4902384;29;20458;-82
2021/04/17 01:22:24;;;;;;;10.10;3.90;;;2.70;99.90;;;;;;4909063;29;20474;-82
2021/04/17 01:25:00;;;;;;;7.87;3.83;;;2.70;99.90;;;;;;4910814;29;20705;-82
2021/04/17 01:27:28;;;;;;;9.73;4.77;;;2.60;99.90;;;;;;4910288;28;20459;-81
2021/04/17 01:29:57;;;;;;;7.00;3.33;;;2.50;99.90;;;;;;4896337;29;20493;-81
2021/04/17 01:32:25;;;;;;;8.47;3.23;;;2.60;99.90;;;;;;4899935;29;20450;-82
2021/04/17 01:34:54;;;;;;;8.00;3.40;;;2.40;99.90;;;;;;4910209;29;20451;-81
2021/04/17 01:37:40;;;;;;;15.73;7.20;;;2.30;99.90;;;;;;4898833;29;20450;-82
2021/04/17 01:40:10;;;;;;;8.83;6.83;;;2.20;99.90;;;;;;4896137;29;20481;-82
2021/04/17 01:42:40;;;;;;;11.70;10.50;;;2.20;99.90;;;;;;4896198;29;20455;-82
2021/04/17 01:45:14;;;;;;;14.57;13.17;;;2.10;99.90;;;;;;4895870;29;20443;-82
2021/04/17 01:47:40;;;;;;;16.13;14.57;;;2.10;99.90;;;;;;4900210;29;21019;-82
2021/04/17 01:50:13;;;;;;;19.75;17.95;;;2.10;99.90;;;;;;4914641;29;20201;-81
2021/04/17 01:52:43;;;;;;;19.50;17.80;;;2.00;99.90;;;;;;4896245;29;20202;-82
2021/04/17 01:55:10;;;;;;;17.60;16.03;;;1.90;99.90;;;;;;4911853;28;20482;-81
2021/04/17 01:57:39;;;;;;;17.60;16.00;;;1.80;99.90;;;;;;4901098;28;20545;-82
2021/04/17 02:00:08;;;;;;;16.20;14.90;;;1.70;99.90;;;;;;4898845;28;20533;-81
2021/04/17 02:02:34;;;;;;;20.33;18.77;;;1.60;99.90;;;;;;4908525;29;21109;-82
2021/04/17 02:05:01;;;;;;;28.83;26.30;;;1.50;99.90;;;;;;4897197;28;20486;-82
2021/04/17 02:07:27;;;;;;;28.93;27.27;;;1.60;99.90;;;;;;4905371;29;20945;-80
2021/04/17 02:09:54;;;;;;;32.23;30.40;;;1.60;99.90;;;;;;4895409;28;20550;-82
2021/04/17 02:12:22;;;;;;;30.25;28.38;;;1.50;99.90;;;;;;4908800;28;20482;-81
2021/04/17 02:14:49;;;;;;;32.27;30.47;;;1.50;99.90;;;;;;4914296;29;20233;-81
2021/04/17 02:17:23;;;;;;;37.27;35.37;;;1.40;99.90;;;;;;4995570;28;20453;-83
2021/04/17 02:19:57;;;;;;;48.87;46.37;;;1.50;99.90;;;;;;5013691;28;20471;-81
2021/04/17 02:22:24;;;;;;;47.43;45.10;;;1.40;99.90;;;;;;5013524;28;20518;-81
2021/04/17 02:25:02;;;;;;;45.35;43.25;;;1.50;99.90;;;;;;5012295;28;20567;-81
2021/04/17 02:27:31;;;;;;;48.70;45.80;;;1.30;99.90;;;;;;4941079;28;20198;-79
2021/04/17 02:30:07;;;;;;;51.08;48.72;;;1.30;99.90;;;;;;4914328;28;20457;-81
2021/04/17 02:32:34;;;;;;;58.43;55.70;;;1.20;99.90;;;;;;4936248;28;20198;-81
2021/04/17 02:35:03;;;;;;;62.28;59.28;;;1.20;99.90;;;;;;4983190;28;20461;-81
2021/04/17 02:37:33;;;;;;;63.37;60.37;;;1.10;99.90;;;;;;4914035;28;20267;-81
2021/04/17 02:40:00;;;;;;;65.15;61.70;;;1.20;99.90;;;;;;4913610;28;20462;-81
2021/04/17 02:42:26;;;;;;;59.78;56.97;;;1.10;99.90;;;;;;4913901;28;20194;-82
2021/04/17 02:44:53;;;;;;;64.53;60.63;;;1.10;99.90;;;;;;4899540;28;20218;-81
2021/04/17 02:47:20;;;;;;;58.60;55.90;;;1.00;99.90;;;;;;4905415;28;20712;-81
2021/04/17 02:49:49;;;;;;;70.63;67.32;;;0.90;99.90;;;;;;4913977;28;20202;-81
2021/04/17 02:52:16;;;;;;;74.93;71.47;;;1.00;99.90;;;;;;4904344;28;20194;-81
2021/04/17 02:54:45;;;;;;;74.50;71.13;;;1.00;99.90;;;;;;4894024;29;20234;-85
2021/04/17 02:57:13;;;;;;;63.10;60.37;;;1.00;99.90;;;;;;4896044;28;20759;-82
2021/04/17 02:59:42;;;;;;;64.27;61.37;;;0.90;99.90;;;;;;4898162;28;20516;-82
2021/04/17 03:02:08;;;;;;;58.00;55.42;;;0.90;99.90;;;;;;4899572;28;20482;-81
2021/04/17 03:04:50;;;;;;;;;;;;;;;;;;;;;
2021/04/17 03:07:19;;;;;;;60.00;56.95;;;0.80;99.90;;;;;;4916679;29;20558;-81
2021/04/17 03:09:47;;;;;;;64.65;61.50;;;0.70;99.90;;;;;;4900336;28;20195;-80
2021/04/17 03:12:14;;;;;;;58.47;55.88;;;0.60;99.90;;;;;;4913866;28;20222;-82
2021/04/17 03:14:41;;;;;;;64.93;61.45;;;0.70;99.90;;;;;;4905367;29;20202;-82
2021/04/17 03:17:08;;;;;;;67.20;63.80;;;0.70;99.90;;;;;;4916921;28;20721;-81
2021/04/17 03:19:36;;;;;;;66.22;63.28;;;0.70;99.90;;;;;;4905231;29;20198;-81
2021/04/17 03:22:04;;;;;;;65.97;63.00;;;0.60;99.90;;;;;;4898126;28;20226;-81
2021/04/17 03:24:35;;;;;;;65.63;62.67;;;0.80;99.90;;;;;;4897832;29;20274;-81
2021/04/17 03:27:08;;;;;;;62.92;59.40;;;0.80;99.90;;;;;;4898872;28;20198;-82
2021/04/17 03:29:39;;;;;;;66.50;63.30;;;0.70;99.90;;;;;;4916842;28;20384;-81
2021/04/17 03:32:06;;;;;;;73.38;69.88;;;0.80;99.90;;;;;;4915366;29;20210;-80
2021/04/17 03:34:41;;;;;;;69.68;65.78;;;0.90;99.90;;;;;;4897830;28;20290;-82
2021/04/17 03:37:17;;;;;;;68.13;64.85;;;1.00;99.90;;;;;;4898577;29;20234;-82
2021/04/17 03:39:44;;;;;;;55.15;52.55;;;1.10;99.90;;;;;;4896880;29;20198;-82
2021/04/17 03:42:19;;;;;;;50.83;48.47;;;1.10;99.90;;;;;;4898197;29;20237;-81
2021/04/17 03:44:55;;;;;;;44.10;41.65;;;1.10;99.90;;;;;;4916719;29;20198;-81
2021/04/17 03:47:21;;;;;;;38.88;36.45;;;1.20;99.90;;;;;;4907269;28;20285;-81
2021/04/17 03:49:48;;;;;;;34.67;32.92;;;1.10;99.90;;;;;;4902762;28;20720;-78
2021/04/17 03:55:29;;;;;;;31.38;29.70;;;1.20;99.90;;;;;;4906646;29;20236;-81
2021/04/17 03:58:10;;;;;;;22.95;21.70;;;1.10;99.90;;;;;;4897615;28;20849;-83
2021/04/17 04:00:39;;;;;;;21.17;19.83;;;1.00;99.90;;;;;;4898350;28;20277;-85
2021/04/17 04:03:05;;;;;;;16.08;14.93;;;0.90;99.90;;;;;;4898955;29;20202;-82
2021/04/17 04:05:33;;;;;;;13.50;12.50;;;0.80;99.90;;;;;;4907366;29;20205;-82
2021/04/17 04:08:00;;;;;;;14.70;13.70;;;0.80;99.90;;;;;;4915361;29;20980;-83
2021/04/17 04:10:27;;;;;;;10.07;8.25;;;0.80;99.90;;;;;;4906907;29;20599;-84
2021/04/17 04:12:55;;;;;;;7.75;4.13;;;0.90;99.90;;;;;;4904468;29;20210;-82
2021/04/17 04:15:23;;;;;;;6.88;2.78;;;1.10;99.90;;;;;;4924738;29;20204;-84
2021/04/17 04:17:56;;;;;;;7.70;3.42;;;1.00;99.90;;;;;;4915222;29;20210;-84
2021/04/17 04:20:23;;;;;;;7.40;3.95;;;1.00;99.90;;;;;;4897768;29;20226;-83
2021/04/17 04:22:59;;;;;;;8.98;5.25;;;1.00;99.90;;;;;;4901126;29;20227;-82
2021/04/17 04:25:28;;;;;;;7.95;3.10;;;1.00;99.90;;;;;;4910758;29;20193;-81
2021/04/17 04:27:56;;;;;;;10.88;7.82;;;0.80;99.90;;;;;;4914546;29;20221;-83
2021/04/17 04:30:30;;;;;;;8.35;6.00;;;0.80;99.90;;;;;;4986770;28;20191;-81
2021/04/17 04:32:57;;;;;;;8.85;6.78;;;0.60;99.90;;;;;;5015369;28;20194;-83
2021/04/17 04:35:28;;;;;;;9.70;4.20;;;0.50;99.90;;;;;;5015287;28;20198;-84
2021/04/17 04:38:03;;;;;;;8.82;4.20;;;0.40;99.90;;;;;;5014220;28;20195;-82
2021/04/17 04:40:29;;;;;;;15.77;5.00;;;0.40;99.90;;;;;;5015240;28;20222;-82
2021/04/17 04:42:55;;;;;;;6.72;3.88;;;0.30;99.90;;;;;;5014993;28;20492;-84
2021/04/17 04:45:22;;;;;;;8.90;4.28;;;0.20;99.90;;;;;;4939820;28;20202;-83
2021/04/17 04:47:48;;;;;;;7.60;4.20;;;0.30;99.90;;;;;;4897195;29;20252;-83
2021/04/17 04:50:19;;;;;;;6.70;3.35;;;0.30;99.90;;;;;;4901914;29;20239;-83
2021/04/17 04:52:46;;;;;;;5.90;3.15;;;0.30;99.90;;;;;;4914734;29;20229;-83
2021/04/17 04:55:14;;;;;;;7.03;2.80;;;0.10;99.90;;;;;;4912588;29;20218;-84
2021/04/17 04:57:43;;;;;;;6.20;3.83;;;0.00;99.90;;;;;;4896527;29;20515;-84
2021/04/17 05:00:25;;;;;;;;;;;;;;;;;;;;;
2021/04/17 05:02:52;;;;;;;6.00;2.15;;;0.10;99.90;;;;;;4915601;29;20202;-83
2021/04/17 05:05:18;;;;;;;13.02;4.88;;;0.20;99.90;;;;;;4912614;29;20248;-84
2021/04/17 05:07:45;;;;;;;9.85;5.70;;;0.40;99.90;;;;;;4900855;29;20249;-83
2021/04/17 05:10:15;;;;;;;6.63;3.70;;;0.40;99.90;;;;;;4896789;29;20202;-84
2021/04/17 05:12:41;;;;;;;6.07;3.30;;;0.40;99.90;;;;;;4900134;29;20194;-83
2021/04/17 05:15:09;;;;;;;6.65;4.65;;;0.40;99.90;;;;;;4913602;29;20289;-83
2021/04/17 05:17:35;;;;;;;9.90;6.28;;;0.30;99.90;;;;;;4896573;29;20587;-84
2021/04/17 05:20:01;;;;;;;9.15;8.27;;;0.30;99.90;;;;;;4896497;29;20203;-83
2021/04/17 05:22:28;;;;;;;16.55;14.13;;;0.20;99.90;;;;;;4914920;29;20226;-85
2021/04/17 05:24:59;;;;;;;25.80;24.20;;;0.30;99.90;;;;;;4914529;29;20712;-84
2021/04/17 05:27:28;;;;;;;28.98;27.48;;;0.50;99.90;;;;;;4896642;28;20643;-83
2021/04/17 05:29:54;;;;;;;32.93;31.33;;;0.80;99.90;;;;;;4896306;28;20732;-85
2021/04/17 05:32:23;;;;;;;31.33;29.50;;;0.80;99.90;;;;;;4896571;29;20465;-82
2021/04/17 05:34:50;;;;;;;31.60;30.00;;;1.10;99.90;;;;;;4896025;29;20489;-84
2021/04/17 05:37:16;;;;;;;32.60;30.83;;;1.30;99.90;;;;;;4912081;29;20464;-84
2021/04/17 05:39:42;;;;;;;28.00;25.20;;;1.50;99.90;;;;;;4913860;29;20465;-82
2021/04/17 05:42:11;;;;;;;23.50;21.90;;;1.60;99.90;;;;;;4913244;29;20489;-83
2021/04/17 05:44:41;;;;;;;23.07;21.77;;;1.70;99.90;;;;;;4915164;29;20468;-82
2021/04/17 05:47:08;;;;;;;24.97;23.37;;;1.90;99.90;;;;;;4898462;29;20497;-82
2021/04/17 05:49:43;;;;;;;28.57;25.57;;;2.00;99.90;;;;;;4913779;28;20934;-83
2021/04/17 05:52:12;;;;;;;17.80;16.23;;;2.30;99.90;;;;;;4908449;29;20516;-82
2021/04/17 05:54:39;;;;;;;14.37;13.27;;;2.50;99.90;;;;;;4894727;29;20474;-80
2021/04/17 05:57:06;;;;;;;17.20;15.80;;;2.70;99.90;;;;;;4896242;28;20479;-81
2021/04/17 05:59:32;;;;;;;13.40;12.30;;;2.90;99.90;;;;;;4895958;29;21026;-80
2021/04/17 06:01:59;;;;;;;12.77;11.67;;;3.10;99.90;;;;;;4927175;28;20481;-82
2021/04/17 06:04:26;;;;;;;18.23;16.70;;;3.20;99.90;;;;;;4976055;28;20485;-78
2021/04/17 06:06:52;;;;;;;13.03;12.03;;;3.30;99.90;;;;;;4914702;28;20470;-81
2021/04/17 06:09:21;;;;;;;18.40;16.73;;;3.50;99.90;;;;;;4913517;29;20515;-80
2021/04/17 06:11:50;;;;;;;137.00;9.60;;;3.60;99.90;;;;;;4913902;28;20494;-83
2021/04/17 06:14:16;;;;;;;10.57;9.47;;;3.70;99.90;;;;;;4914549;28;20497;-83
2021/04/17 06:16:43;;;;;;;10.03;6.63;;;3.80;99.90;;;;;;4906811;29;20455;-82
2021/04/17 06:19:10;;;;;;;6.93;3.27;;;3.90;99.90;;;;;;4895495;29;20462;-81
2021/04/17 06:21:37;;;;;;;12.30;7.27;;;4.10;99.90;;;;;;4901165;29;20486;-82
2021/04/17 06:24:03;;;;;;;9.60;4.87;;;4.20;99.90;;;;;;4913285;29;21073;-83
2021/04/17 06:26:30;;;;;;;13.10;6.47;;;4.20;99.90;;;;;;4909603;29;20473;-82
2021/04/17 06:29:05;;;;;;;19.17;7.23;;;4.40;99.90;;;;;;4895909;29;20962;-79
2021/04/17 06:31:32;;;;;;;9.00;4.30;;;4.40;99.90;;;;;;4901060;28;20458;-80
2021/04/17 06:33:58;;;;;;;6.40;2.40;;;4.50;99.90;;;;;;4905623;29;20481;-83
2021/04/17 06:36:25;;;;;;;7.87;2.23;;;4.60;99.90;;;;;;4906411;29;20492;-85
2021/04/17 06:38:52;;;;;;;7.63;2.83;;;4.80;99.90;;;;;;4913048;28;20458;-83
2021/04/17 06:41:20;;;;;;;12.17;6.03;;;5.00;99.90;;;;;;4907318;28;20485;-87
2021/04/17 06:43:49;;;;;;;8.23;3.90;;;5.10;99.90;;;;;;4903587;29;20455;-84
2021/04/17 06:46:17;;;;;;;12.07;7.23;;;5.20;99.90;;;;;;4905422;28;20450;-83
2021/04/17 06:48:44;;;;;;;11.23;4.33;;;5.30;99.90;;;;;;4908329;29;20460;-81
2021/04/17 06:51:14;;;;;;;10.90;4.03;;;5.50;99.90;;;;;;4907136;29;20534;-84
2021/04/17 06:53:41;;;;;;;7.73;2.97;;;5.60;99.90;;;;;;4902886;29;20459;-82
2021/04/17 06:56:10;;;;;;;14.87;5.17;;;5.60;99.90;;;;;;4898278;28;20477;-81
2021/04/17 06:58:38;;;;;;;9.70;4.07;;;5.80;99.90;;;;;;4910567;29;20454;-80
2021/04/17 07:01:08;;;;;;;8.77;2.80;;;5.90;93.80;;;;;;4902290;29;20479;-81
2021/04/17 07:03:34;;;;;;;8.07;3.90;;;5.90;91.10;;;;;;4905130;28;20576;-80
2021/04/17 07:06:01;;;;;;;8.60;2.47;;;6.10;96.90;;;;;;4897151;29;20541;-81
2021/04/17 07:08:28;;;;;;;8.00;3.20;;;6.10;84.90;;;;;;4894392;29;20455;-85
2021/04/17 07:10:58;;;;;;;13.77;6.00;;;6.30;91.10;;;;;;4906096;29;20486;-84
2021/04/17 07:13:25;;;;;;;10.53;5.50;;;6.50;90.00;;;;;;4905534;29;20506;-80
2021/04/17 07:16:04;;;;;;;14.37;6.20;;;6.60;75.10;;;;;;4905276;29;20465;-83
2021/04/17 07:18:32;;;;;;;11.90;6.50;;;6.70;73.80;;;;;;4909592;29;20461;-82
2021/04/17 07:21:01;;;;;;;11.33;5.20;;;6.70;60.10;;;;;;4913764;28;20512;-84
2021/04/17 07:23:43;;;;;;;12.50;3.50;;;6.70;66.50;;;;;;4904449;29;20465;-85
2021/04/17 07:26:43;;;;;;;;;;;;;;;;;;;;;
2021/04/17 07:29:21;;;;;;;17.10;4.17;;;6.80;61.40;;;;;;4893365;29;20504;-83
2021/04/17 07:32:35;;;;;;;7.70;2.53;;;6.90;66.90;;;;;;4909375;28;20457;-82
2021/04/17 07:35:15;;;;;;;8.57;2.50;;;7.00;63.90;;;;;;4890214;29;20561;-82
2021/04/17 07:37:48;;;;;;;9.80;2.50;;;7.20;48.20;;;;;;4896540;29;20557;-82
2021/04/17 07:43:20;;;;;;;12.47;5.57;;;7.30;39.40;;;;;;4971173;28;20451;-83
2021/04/17 07:46:08;;;;;;;13.20;4.20;;;7.40;38.40;;;;;;4993488;28;20828;-83
2021/04/17 07:49:01;;;;;;;9.20;2.73;;;7.50;39.40;;;;;;4994920;28;20458;-83
2021/04/17 07:52:08;;;;;;;14.53;4.80;;;7.60;30.40;;;;;;4916938;29;20446;-83
2021/04/17 07:54:35;;;;;;;11.90;4.70;;;7.80;28.20;;;;;;4906710;29;21082;-83
2021/04/17 07:57:07;;;;;;;11.37;3.30;;;8.00;28.90;;;;;;4917261;29;20481;-81
2021/04/17 07:59:42;;;;;;;20.20;5.37;;;8.10;29.60;;;;;;4916766;29;20622;-82
2021/04/17 08:02:55;;;;;;;11.77;3.13;;;8.40;26.70;;;;;;4934519;28;20519;-83
2021/04/17 08:05:23;;;;;;;11.40;3.90;;;8.50;22.40;;;;;;4995951;28;20492;-87
2021/04/17 08:07:53;;;;;;;11.17;2.60;;;8.80;22.10;;;;;;4995164;28;20477;-82
2021/04/17 08:10:21;;;;;;;11.33;3.40;;;9.00;16.60;;;;;;4996440;28;20462;-85
2021/04/17 08:12:48;;;;;;;18.02;4.03;;;9.10;13.40;;;;;;4995910;28;20915;-85
2021/04/17 08:15:18;;;;;;;37.47;3.97;;;9.30;16.50;;;;;;4995610;28;20252;-87
2021/04/17 08:17:46;;;;;;;16.60;5.10;;;9.30;13.70;;;;;;4976966;28;20868;-85
2021/04/17 08:20:15;;;;;;;17.47;4.13;;;9.30;15.10;;;;;;4976698;28;20482;-84
2021/04/17 08:22:43;;;;;;;17.33;3.60;;;9.70;14.70;;;;;;4994387;28;20909;-86
2021/04/17 08:25:11;;;;;;;18.60;3.97;;;9.70;12.50;;;;;;4996358;28;20557;-86
2021/04/17 08:27:38;;;;;;;18.43;3.70;;;9.60;11.00;;;;;;4995844;28;20453;-86
2021/04/17 08:30:07;;;;;;;16.20;2.67;;;9.90;12.20;;;;;;4995224;28;20461;-86
2021/04/17 08:32:37;;;;;;;22.57;4.80;;;10.00;9.40;;;;;;4994850;28;20493;-86
2021/04/17 08:35:11;;;;;;;17.70;3.50;;;10.00;8.70;;;;;;4991315;28;20476;-86
2021/04/17 08:38:09;;;;;;;26.23;4.87;;;10.20;6.50;;;;;;4995040;28;20540;-85
2021/04/17 08:40:51;;;;;;;18.77;3.27;;;10.50;7.80;;;;;;4994826;28;20451;-85
2021/04/17 08:43:41;;;;;;;21.67;2.60;;;10.50;5.40;;;;;;4995486;28;20462;-87
2021/04/17 08:46:14;;;;;;;21.40;4.07;;;10.60;6.30;;;;;;4995018;28;20510;-87
2021/04/17 08:48:49;;;;;;;21.40;4.50;;;11.00;7.70;;;;;;4994063;28;20460;-84
2021/04/17 08:51:40;;;;;;;18.40;1.93;;;11.20;9.10;;;;;;4990762;28;20546;-86
2021/04/17 08:54:27;;;;;;;20.83;2.50;;;11.20;7.10;;;;;;4993479;28;20993;-87
2021/04/17 08:57:03;;;;;;;20.63;3.60;;;11.00;6.80;;;;;;4994712;28;20577;-87
2021/04/17 08:59:32;;;;;;;17.73;2.47;;;11.00;3.10;;;;;;4994183;28;20906;-85
2021/04/17 09:02:12;;;;;;;20.87;3.60;;;10.90;3.20;;;;;;4994875;28;20485;-85
2021/04/17 09:05:17;;;;;;;19.47;3.43;;;11.20;8.50;;;;;;4993995;28;20491;-85
2021/04/17 09:08:12;;;;;;;19.50;4.40;;;11.50;3.80;;;;;;4991874;28;20457;-82
2021/04/17 09:10:39;;;;;;;23.17;5.63;;;11.30;6.80;;;;;;4994520;28;20544;-84
2021/04/17 09:13:30;;;;;;;21.90;3.90;;;11.40;6.40;;;;;;4994603;28;20485;-85
2021/04/17 09:15:58;;;;;;;23.30;4.60;;;11.40;3.00;;;;;;4993195;28;20544;-87
2021/04/17 09:18:43;;;;;;;23.57;4.77;;;11.70;4.50;;;;;;4993193;28;20253;-85
2021/04/17 09:21:33;;;;;;;26.90;5.50;;;11.90;1.90;;;;;;4989743;28;20482;-84
2021/04/17 09:24:03;;;;;;;20.90;2.10;;;12.40;1.00;;;;;;4988613;28;20461;-86
2021/04/17 09:26:37;;;;;;;20.30;3.13;;;12.50;1.00;;;;;;4992367;28;20595;-84
2021/04/17 09:29:06;;;;;;;23.93;3.43;;;12.80;1.00;;;;;;4991984;28;20470;-80
2021/04/17 09:31:36;;;;;;;21.73;2.57;;;13.20;1.00;;;;;;4993404;28;20922;-83
2021/04/17 09:34:05;;;;;;;24.83;3.57;;;12.90;1.00;;;;;;4992126;28;20545;-81
2021/04/17 09:36:31;;;;;;;24.80;3.53;;;13.70;1.00;;;;;;4993580;28;20488;-84
2021/04/17 09:38:59;;;;;;;21.27;2.00;;;13.50;1.00;;;;;;4991814;28;20890;-86
2021/04/17 09:41:45;;;;;;;23.30;2.27;;;13.00;1.00;;;;;;4989343;28;21001;-83
2021/04/17 09:44:13;;;;;;;22.83;2.10;;;12.50;1.00;;;;;;4983733;28;20453;-86
2021/04/17 09:46:39;;;;;;;22.70;2.33;;;12.50;1.00;;;;;;4993823;28;20996;-84
2021/04/17 09:49:06;;;;;;;24.00;2.27;;;12.40;1.00;;;;;;4993710;28;20570;-85
2021/04/17 09:51:32;;;;;;;22.03;2.57;;;12.30;1.00;;;;;;4993588;28;20454;-84
2021/04/17 09:54:03;;;;;;;25.13;3.37;;;12.60;1.00;;;;;;4992206;28;20473;-83
2021/04/17 09:56:31;;;;;;;29.13;3.47;;;12.90;1.00;;;;;;4994052;28;20973;-85
2021/04/17 09:58:58;;;;;;;22.90;2.50;;;13.30;1.00;;;;;;4993473;28;20537;-86
2021/04/17 10:01:25;;;;;;;22.37;2.90;;;13.50;1.00;;;;;;4993440;28;20877;-84
2021/04/17 10:03:53;;;;;;;24.37;3.83;;;12.70;1.00;;;;;;4993656;28;21004;-85
2021/04/17 10:06:27;;;;;;;22.00;2.33;;;13.60;1.00;;;;;;4994219;28;20454;-85
2021/04/17 10:08:54;;;;;;;22.40;2.50;;;13.50;1.00;;;;;;4992084;28;20457;-84
2021/04/17 10:11:24;;;;;;;25.97;3.67;;;13.90;1.00;;;;;;4994195;28;20541;-86
2021/04/17 10:13:51;;;;;;;25.43;3.23;;;14.00;1.00;;;;;;4993761;28;20454;-85
2021/04/17 10:16:25;;;;;;;26.33;2.30;;;14.50;1.00;;;;;;4994134;28;20519;-85
2021/04/17 10:18:52;;;;;;;26.30;3.60;;;15.10;1.00;;;;;;4993394;28;20544;-86
2021/04/17 10:21:23;;;;;;;26.87;2.77;;;14.90;1.00;;;;;;4993758;28;20575;-86
2021/04/17 10:24:18;;;;;;;25.83;1.87;;;14.70;1.00;;;;;;4992475;28;20472;-86
2021/04/17 10:27:01;;;;;;;30.00;2.87;;;14.70;1.00;;;;;;4992716;28;20814;-85
2021/04/17 10:29:36;;;;;;;32.40;3.13;;;14.50;1.00;;;;;;4992738;28;20457;-86
2021/04/17 10:32:04;;;;;;;28.50;2.90;;;13.80;1.00;;;;;;4992570;28;20450;-85
2021/04/17 10:34:31;;;;;;;26.80;1.93;;;13.70;1.00;;;;;;4992518;28;20469;-82
2021/04/17 10:36:59;;;;;;;24.30;2.40;;;13.70;1.00;;;;;;4993280;28;20902;-84
2021/04/17 10:39:26;;;;;;;28.40;2.40;;;13.90;1.00;;;;;;4992313;28;20508;-84
2021/04/17 10:42:05;;;;;;;30.00;2.80;;;13.80;1.00;;;;;;4992379;28;21025;-84
2021/04/17 10:44:31;;;;;;;24.10;2.10;;;13.90;1.00;;;;;;4992967;28;20461;-84
2021/04/17 10:47:00;;;;;;;26.33;5.20;;;13.90;1.00;;;;;;4992153;28;20498;-83
2021/04/17 10:49:32;;;;;;;23.97;2.40;;;13.60;1.00;;;;;;4992094;28;20501;-85
2021/04/17 10:51:59;;;;;;;23.60;2.40;;;13.50;1.00;;;;;;4993044;28;20560;-85
2021/04/17 10:54:26;;;;;;;24.57;2.97;;;13.50;1.00;;;;;;4991897;28;20458;-88
2021/04/17 10:56:57;;;;;;;24.63;3.50;;;13.40;1.00;;;;;;4992823;28;20927;-86
2021/04/17 10:59:24;;;;;;;21.30;1.70;;;13.80;1.00;;;;;;4993550;28;20542;-86
2021/04/17 11:01:50;;;;;;;26.43;3.07;;;14.60;1.00;;;;;;4993316;28;20485;-82
2021/04/17 11:04:17;;;;;;;23.50;2.43;;;15.10;1.00;;;;;;4992820;28;20932;-85
2021/04/17 11:06:47;;;;;;;26.23;3.07;;;14.80;1.00;;;;;;4992581;28;20454;-85
2021/04/17 11:09:16;;;;;;;29.93;3.47;;;15.40;1.00;;;;;;4991511;28;20469;-86
2021/04/17 11:11:53;;;;;;;28.03;3.00;;;16.40;1.00;;;;;;4993400;28;20454;-86
2021/04/17 11:14:21;;;;;;;28.20;3.27;;;16.70;1.00;;;;;;4992584;28;20481;-86
2021/04/17 11:16:53;;;;;;;32.23;4.20;;;15.80;1.00;;;;;;4992277;28;20473;-85
2021/04/17 11:19:27;;;;;;;31.63;3.50;;;16.60;1.00;;;;;;4993338;28;20462;-83
2021/04/17 11:22:08;;;;;;;29.87;3.60;;;15.90;1.00;;;;;;4996212;28;20858;-87
2021/04/17 11:24:35;;;;;;;29.80;2.93;;;16.00;1.00;;;;;;4995323;28;20560;-86
2021/04/17 11:27:01;;;;;;;29.23;3.23;;;15.40;1.00;;;;;;4996359;28;20537;-85
2021/04/17 11:29:28;;;;;;;31.83;3.90;;;15.10;1.00;;;;;;4996838;28;20450;-87
2021/04/17 11:31:55;;;;;;;32.10;3.17;;;15.10;1.00;;;;;;4996073;28;20453;-85
2021/04/17 11:34:21;;;;;;;29.57;3.60;;;14.70;1.00;;;;;;4996491;28;20456;-85
2021/04/17 11:36:48;;;;;;;24.70;2.57;;;14.10;1.00;;;;;;4996674;28;20449;-86
2021/04/17 11:39:15;;;;;;;25.80;4.30;;;13.70;1.00;;;;;;4995624;28;20492;-85
2021/04/17 11:41:42;;;;;;;24.70;2.83;;;13.10;1.00;;;;;;4996563;28;20613;-85
2021/04/17 11:44:08;;;;;;;24.20;3.53;;;12.80;1.00;;;;;;4996380;28;20890;-83
2021/04/17 11:46:36;;;;;;;27.13;3.57;;;12.80;1.00;;;;;;4996746;28;20556;-85
2021/04/17 11:49:04;;;;;;;22.73;3.07;;;13.10;1.00;;;;;;4997739;28;20493;-86
2021/04/17 11:51:30;;;;;;;22.83;4.17;;;13.30;1.00;;;;;;4996866;28;20889;-86
2021/04/17 11:53:57;;;;;;;23.97;4.90;;;13.20;1.00;;;;;;4995353;28;20589;-88
2021/04/17 11:56:23;;;;;;;27.83;3.53;;;13.10;1.00;;;;;;4996440;28;20977;-85
2021/04/17 11:58:50;;;;;;;21.93;2.77;;;13.10;1.00;;;;;;4995601;28;20452;-84
2021/04/17 12:01:18;;;;;;;21.67;4.37;;;12.90;1.00;;;;;;4994877;28;20556;-81
2021/04/17 12:03:45;;;;;;;21.33;4.17;;;12.70;1.00;;;;;;4995804;28;20859;-85
2021/04/17 12:06:12;;;;;;;21.17;2.47;;;12.60;1.00;;;;;;4992858;28;20556;-86
2021/04/17 12:08:39;;;;;;;18.07;2.43;;;12.60;1.00;;;;;;4994191;28;20461;-83
2021/04/17 12:11:06;;;;;;;18.00;2.17;;;12.50;1.00;;;;;;4994719;28;20468;-82
2021/04/17 12:13:33;;;;;;;19.67;3.03;;;12.50;1.00;;;;;;4994887;28;20462;-85
2021/04/17 12:15:59;;;;;;;32.50;4.00;;;12.40;1.00;;;;;;4994852;28;20456;-84
2021/04/17 12:18:26;;;;;;;18.27;3.03;;;12.40;1.00;;;;;;4995351;28;20490;-85
2021/04/17 12:20:52;;;;;;;17.63;2.67;;;12.50;1.00;;;;;;4991931;28;20461;-88
2021/04/17 12:23:19;;;;;;;19.47;3.10;;;12.70;1.00;;;;;;4994088;28;20897;-82
2021/04/17 12:25:46;;;;;;;23.10;4.20;;;12.70;1.00;;;;;;4995172;28;20456;-84
2021/04/17 12:28:12;;;;;;;19.77;3.47;;;13.00;1.00;;;;;;4995688;28;20481;-83
2021/04/17 12:30:39;;;;;;;19.93;2.47;;;12.80;1.00;;;;;;4994880;28;20933;-86
2021/04/17 12:33:06;;;;;;;20.00;3.37;;;13.00;1.00;;;;;;4995844;28;20491;-85
2021/04/17 12:35:32;;;;;;;18.53;1.60;;;12.80;1.00;;;;;;4995599;28;20469;-84
2021/04/17 12:37:59;;;;;;;18.90;2.40;;;12.70;1.00;;;;;;4994418;28;20541;-84
2021/04/17 12:40:26;;;;;;;27.33;3.83;;;12.80;1.00;;;;;;4995665;28;20451;-84
2021/04/17 12:42:52;;;;;;;22.37;2.07;;;13.10;1.00;;;;;;4995257;28;21089;-87
2021/04/17 12:45:20;;;;;;;16.67;1.63;;;13.20;1.00;;;;;;4995755;28;20492;-85
2021/04/17 12:47:46;;;;;;;17.47;2.07;;;13.20;1.00;;;;;;4995325;28;20855;-84
2021/04/17 12:50:13;;;;;;;21.17;2.37;;;13.30;1.00;;;;;;4995599;28;20981;-84
2021/04/17 12:52:41;;;;;;;18.73;1.87;;;13.60;1.00;;;;;;4994748;28;20461;-84
2021/04/17 12:55:09;;;;;;;18.50;3.00;;;13.90;1.00;;;;;;4995210;28;20481;-85
2021/04/17 12:57:36;;;;;;;20.40;2.73;;;14.30;1.00;;;;;;4994382;28;20462;-85
2021/04/17 13:00:07;;;;;;;21.63;2.27;;;15.10;1.00;;;;;;4994591;28;21069;-85
2021/04/17 13:02:34;;;;;;;21.60;1.80;;;15.20;1.00;;;;;;4993786;28;20478;-83
2021/04/17 13:05:01;;;;;;;22.63;2.50;;;15.20;1.00;;;;;;4994475;28;20513;-84
2021/04/17 13:07:28;;;;;;;25.37;3.63;;;15.50;1.00;;;;;;4994686;28;20473;-84
2021/04/17 13:09:56;;;;;;;25.20;3.00;;;14.90;1.00;;;;;;4994040;28;20457;-83
2021/04/17 13:12:22;;;;;;;22.87;1.80;;;14.30;1.00;;;;;;4994916;28;20454;-83
2021/04/17 13:14:49;;;;;;;24.23;2.77;;;14.20;1.00;;;;;;4994933;28;20462;-83